createdAt,value
2022-10-05T00:01:39.975Z,11.58
2022-10-05T00:04:15.680Z,11.55
2022-10-05T00:06:44.860Z,11.60
2022-10-05T00:09:23.682Z,11.56
2022-10-05T00:11:51.298Z,11.56
2022-10-05T00:14:27.838Z,11.49
2022-10-05T00:16:56.119Z,11.45
2022-10-05T00:19:30.998Z,11.46
2022-10-05T00:22:12.099Z,11.43
2022-10-05T00:24:38.825Z,11.42
2022-10-05T00:27:23.412Z,11.45
2022-10-05T00:29:52.168Z,11.42
2022-10-05T00:32:18.816Z,11.42
2022-10-05T00:34:46.838Z,11.41
2022-10-05T00:37:13.942Z,11.31
2022-10-05T00:39:41.927Z,11.31
2022-10-05T00:42:11.630Z,11.22
2022-10-05T00:45:07.033Z,11.25
2022-10-05T00:47:42.732Z,11.19
2022-10-05T00:50:21.465Z,11.17
2022-10-05T00:52:50.888Z,11.11
2022-10-05T00:55:52.732Z,11.07
2022-10-05T00:58:37.818Z,11.08
2022-10-05T01:01:33.245Z,11.10
2022-10-05T01:04:10.071Z,11.14
2022-10-05T01:06:52.828Z,11.12
2022-10-05T01:09:25.015Z,11.07
2022-10-05T01:11:57.980Z,11.06
2022-10-05T01:15:00.906Z,11.04
2022-10-05T01:17:52.703Z,11.00
2022-10-05T01:20:43.573Z,11.02
2022-10-05T01:23:24.885Z,11.01
2022-10-05T01:26:19.514Z,11.02
2022-10-05T01:29:12.178Z,11.02
2022-10-05T01:31:49.959Z,10.98
2022-10-05T01:34:27.053Z,10.95
2022-10-05T01:36:56.746Z,10.98
2022-10-05T01:39:54.895Z,10.98
2022-10-05T01:42:46.142Z,10.94
2022-10-05T01:45:39.111Z,10.88
2022-10-05T01:48:42.182Z,10.85
2022-10-05T01:51:39.603Z,10.81
2022-10-05T01:54:31.907Z,10.81
2022-10-05T01:57:21.209Z,10.77
2022-10-05T02:00:08.675Z,10.76
2022-10-05T02:02:40.383Z,10.69
2022-10-05T02:05:21.501Z,10.70
2022-10-05T02:08:09.649Z,10.64
2022-10-05T02:10:49.542Z,10.64
2022-10-05T02:13:22.306Z,10.59
2022-10-05T02:15:56.643Z,10.60
2022-10-05T02:18:32.801Z,10.59
2022-10-05T02:21:01.923Z,10.61
2022-10-05T02:23:33.755Z,10.63
2022-10-05T02:26:01.603Z,10.67
2022-10-05T02:28:34.932Z,10.63
2022-10-05T02:31:09.596Z,10.71
2022-10-05T02:33:36.699Z,10.71
2022-10-05T02:36:25.311Z,10.76
2022-10-05T02:39:02.972Z,10.69
2022-10-05T02:41:30.411Z,10.66
2022-10-05T02:44:15.195Z,10.57
2022-10-05T02:46:57.027Z,10.60
2022-10-05T02:49:32.580Z,10.57
2022-10-05T02:52:14.829Z,10.55
2022-10-05T02:55:01.449Z,10.49
2022-10-05T02:57:36.894Z,10.50
2022-10-05T03:00:15.164Z,10.46
2022-10-05T03:02:47.660Z,10.46
2022-10-05T03:05:42.302Z,10.45
2022-10-05T03:08:21.518Z,10.43
2022-10-05T03:11:04.643Z,10.48
2022-10-05T03:14:01.720Z,10.48
2022-10-05T03:16:47.794Z,10.53
2022-10-05T03:19:17.465Z,10.52
2022-10-05T03:21:56.016Z,10.56
2022-10-05T03:24:22.656Z,10.67
2022-10-05T03:27:17.174Z,10.80
2022-10-05T03:30:08.832Z,10.87
2022-10-05T03:33:06.761Z,10.88
2022-10-05T03:35:49.472Z,10.97
2022-10-05T03:38:45.425Z,11.00
2022-10-05T03:41:23.374Z,11.00
2022-10-05T03:44:02.318Z,11.02
2022-10-05T03:46:55.996Z,11.06
2022-10-05T03:49:28.875Z,11.04
2022-10-05T03:52:23.060Z,11.04
2022-10-05T03:54:57.223Z,11.08
2022-10-05T03:57:27.184Z,11.04
2022-10-05T04:00:12.893Z,11.12
2022-10-05T04:03:08.055Z,11.08
2022-10-05T04:05:56.879Z,11.14
2022-10-05T04:08:35.280Z,11.14
2022-10-05T04:11:09.736Z,11.15
2022-10-05T04:13:42.862Z,11.14
2022-10-05T04:16:18.297Z,11.14
2022-10-05T04:18:58.015Z,11.14
2022-10-05T04:21:35.259Z,11.17
2022-10-05T04:24:10.663Z,11.12
2022-10-05T04:26:40.371Z,11.11
2022-10-05T04:29:28.675Z,11.10
2022-10-05T04:32:18.219Z,11.08
2022-10-05T04:34:58.030Z,11.08
2022-10-05T04:37:32.394Z,11.14
2022-10-05T04:40:36.874Z,11.15
2022-10-05T04:43:18.333Z,11.22
2022-10-05T04:46:17.873Z,11.25
2022-10-05T04:49:22.421Z,11.28
2022-10-05T04:51:58.293Z,11.29
2022-10-05T04:55:04.798Z,11.32
2022-10-05T04:57:41.939Z,11.39
2022-10-05T05:00:21.119Z,11.41
2022-10-05T05:02:56.993Z,11.46
2022-10-05T05:05:23.658Z,11.43
2022-10-05T05:08:02.318Z,11.46
2022-10-05T05:10:50.175Z,11.53
2022-10-05T05:13:34.805Z,11.53
2022-10-05T05:16:08.381Z,11.60
2022-10-05T05:19:02.211Z,11.58
2022-10-05T05:21:43.672Z,11.59
2022-10-05T05:24:12.948Z,11.65
2022-10-05T05:27:14.566Z,11.63
2022-10-05T05:29:50.733Z,11.66
2022-10-05T05:32:39.094Z,11.71
2022-10-05T05:35:34.994Z,11.67
2022-10-05T05:38:19.685Z,11.70
2022-10-05T05:40:54.799Z,11.73
2022-10-05T05:43:27.859Z,11.71
2022-10-05T05:46:01.198Z,11.75
2022-10-05T05:48:37.852Z,11.78
2022-10-05T05:51:10.950Z,11.75
2022-10-05T05:53:41.996Z,11.78
2022-10-05T05:56:12.698Z,11.83
2022-10-05T05:59:04.391Z,11.83
2022-10-05T06:01:38.496Z,11.82
2022-10-05T06:04:16.048Z,11.82
2022-10-05T06:06:48.170Z,11.89
2022-10-05T06:09:29.845Z,11.91
2022-10-05T06:12:07.575Z,11.94
2022-10-05T06:14:43.054Z,11.99
2022-10-05T06:17:18.694Z,12.01
2022-10-05T06:19:48.758Z,12.08
2022-10-05T06:22:18.370Z,12.11
2022-10-05T06:25:29.794Z,12.17
2022-10-05T06:28:13.686Z,12.22
2022-10-05T06:33:52.238Z,12.32
2022-10-05T06:36:57.224Z,12.32
2022-10-05T06:39:33.103Z,12.44
2022-10-05T06:42:31.770Z,12.47
2022-10-05T06:45:05.273Z,12.52
2022-10-05T06:47:59.466Z,12.64
2022-10-05T06:50:41.273Z,12.69
2022-10-05T06:53:13.444Z,12.79
2022-10-05T06:55:51.313Z,12.80
2022-10-05T06:58:39.497Z,12.89
2022-10-05T07:01:23.948Z,12.96
2022-10-05T07:03:59.055Z,12.99
2022-10-05T07:06:54.361Z,13.07
2022-10-05T07:09:23.807Z,13.15
2022-10-05T07:12:03.855Z,13.17
2022-10-05T07:14:37.353Z,13.24
2022-10-05T07:17:14.033Z,13.28
2022-10-05T07:20:01.089Z,13.33
2022-10-05T07:22:49.163Z,13.37
2022-10-05T07:25:21.221Z,13.41
2022-10-05T07:28:02.825Z,13.51
2022-10-05T07:30:37.368Z,13.51
2022-10-05T07:33:13.190Z,13.55
2022-10-05T07:36:02.664Z,13.59
2022-10-05T07:38:33.334Z,13.61
2022-10-05T07:41:08.373Z,13.65
2022-10-05T07:44:02.877Z,13.72
2022-10-05T07:46:43.723Z,13.77
2022-10-05T07:49:40.524Z,13.81
2022-10-05T07:52:16.486Z,13.82
2022-10-05T07:55:10.814Z,13.88
2022-10-05T07:57:43.351Z,13.92
2022-10-05T08:00:17.984Z,13.92
2022-10-05T08:02:52.305Z,13.92
2022-10-05T08:05:30.890Z,13.95
2022-10-05T08:08:07.012Z,13.98
2022-10-05T08:10:38.843Z,14.08
2022-10-05T08:13:48.377Z,14.12
2022-10-05T08:16:16.834Z,14.10
2022-10-05T08:19:08.483Z,14.17
2022-10-05T08:21:50.527Z,14.20
2022-10-05T08:24:48.494Z,14.26
2022-10-05T08:27:25.502Z,14.33
2022-10-05T08:30:12.868Z,14.33
2022-10-05T08:32:51.763Z,14.36
2022-10-05T08:35:35.458Z,14.41
2022-10-05T08:38:14.845Z,14.41
2022-10-05T08:40:47.284Z,14.41
2022-10-05T08:43:17.096Z,14.57
2022-10-05T08:45:55.549Z,14.63
2022-10-05T08:48:34.389Z,14.71
2022-10-05T08:51:07.077Z,14.80
2022-10-05T08:54:07.726Z,14.91
2022-10-05T08:56:56.067Z,14.94
2022-10-05T08:59:45.693Z,15.06
2022-10-05T09:02:27.922Z,15.12
2022-10-05T09:05:11.576Z,15.19
2022-10-05T09:08:06.110Z,15.35
2022-10-05T09:10:51.386Z,15.40
2022-10-05T09:13:27.058Z,15.52
2022-10-05T09:16:12.139Z,15.59
2022-10-05T09:19:16.139Z,15.71
2022-10-05T09:21:49.412Z,15.90
2022-10-05T09:24:48.713Z,16.03
2022-10-05T09:27:20.347Z,16.21
2022-10-05T09:30:14.800Z,16.38
2022-10-05T09:33:30.152Z,16.26
2022-10-05T09:36:08.939Z,16.53
2022-10-05T09:38:56.994Z,16.92
2022-10-05T09:41:38.613Z,16.97
2022-10-05T09:44:18.889Z,17.62
2022-10-05T09:46:51.432Z,17.78
2022-10-05T09:50:00.704Z,18.64
2022-10-05T09:52:42.773Z,19.16
2022-10-05T09:55:51.272Z,19.05
2022-10-05T09:58:39.532Z,18.41
2022-10-05T10:01:46.564Z,17.83
2022-10-05T10:04:26.002Z,17.72
2022-10-05T10:07:33.935Z,17.66
2022-10-05T10:10:33.909Z,17.81
2022-10-05T10:13:06.493Z,18.20
2022-10-05T10:15:52.602Z,18.38
2022-10-05T10:18:38.064Z,18.51
2022-10-05T10:21:42.558Z,18.52
2022-10-05T10:24:48.674Z,18.14
2022-10-05T10:27:33.319Z,18.45
2022-10-05T10:30:31.045Z,18.89
2022-10-05T10:33:19.591Z,18.99
2022-10-05T10:36:06.258Z,18.47
2022-10-05T10:38:41.413Z,18.71
2022-10-05T10:41:33.259Z,18.75
2022-10-05T10:44:58.933Z,19.40
2022-10-05T10:47:37.731Z,20.76
2022-10-05T10:50:41.134Z,21.10
2022-10-05T10:53:31.430Z,21.01
2022-10-05T10:56:31.288Z,21.35
2022-10-05T10:59:26.656Z,21.41
2022-10-05T11:02:13.707Z,21.72
2022-10-05T11:04:59.018Z,22.36
2022-10-05T11:07:58.222Z,22.09
2022-10-05T11:10:29.254Z,22.92
2022-10-05T11:13:07.741Z,22.48
2022-10-05T11:16:01.929Z,22.29
2022-10-05T11:18:49.848Z,22.09
2022-10-05T11:21:37.783Z,21.89
2022-10-05T11:24:26.304Z,22.91
2022-10-05T11:27:08.421Z,22.94
2022-10-05T11:30:02.627Z,22.41
2022-10-05T11:32:51.121Z,22.32
2022-10-05T11:35:50.292Z,22.63
2022-10-05T11:38:35.384Z,22.90
2022-10-05T11:41:33.850Z,23.18
2022-10-05T11:44:35.938Z,24.02
2022-10-05T11:47:21.744Z,24.25
2022-10-05T11:50:05.562Z,23.63
2022-10-05T11:52:52.478Z,23.58
2022-10-05T11:55:38.964Z,23.19
2022-10-05T11:58:11.265Z,22.90
2022-10-05T12:00:46.574Z,22.96
2022-10-05T12:03:32.077Z,23.62
2022-10-05T12:06:04.269Z,23.16
2022-10-05T12:08:43.946Z,22.91
2022-10-05T12:11:28.884Z,23.01
2022-10-05T12:14:07.369Z,23.26
2022-10-05T12:16:43.783Z,23.35
2022-10-05T12:19:29.855Z,22.53
2022-10-05T12:22:09.937Z,23.26
2022-10-05T12:24:36.402Z,23.46
2022-10-05T12:27:11.180Z,23.26
2022-10-05T12:29:58.640Z,23.05
2022-10-05T12:32:50.278Z,22.92
2022-10-05T12:35:47.083Z,22.84
2022-10-05T12:38:34.574Z,23.19
2022-10-05T12:41:13.023Z,23.25
2022-10-05T12:43:54.577Z,22.72
2022-10-05T12:46:31.911Z,22.45
2022-10-05T12:49:44.091Z,22.57
2022-10-05T12:52:23.952Z,22.43
2022-10-05T12:55:01.442Z,22.40
2022-10-05T12:57:42.919Z,22.92
2022-10-05T13:00:20.294Z,22.99
2022-10-05T13:03:03.159Z,22.45
2022-10-05T13:05:52.576Z,22.44
2022-10-05T13:08:31.334Z,22.40
2022-10-05T13:11:15.032Z,22.74
2022-10-05T13:13:56.177Z,22.64
2022-10-05T13:16:41.839Z,22.57
2022-10-05T13:19:44.647Z,23.28
2022-10-05T13:22:17.044Z,22.99
2022-10-05T13:24:49.366Z,22.88
2022-10-05T13:27:24.711Z,22.71
2022-10-05T13:30:16.148Z,22.61
2022-10-05T13:32:57.123Z,22.87
2022-10-05T13:35:44.883Z,23.21
2022-10-05T13:38:34.503Z,23.12
2022-10-05T13:41:20.549Z,22.74
2022-10-05T13:44:09.021Z,22.68
2022-10-05T13:46:45.389Z,22.96
2022-10-05T13:49:36.872Z,22.64
2022-10-05T13:52:16.114Z,22.75
2022-10-05T13:55:12.772Z,23.19
2022-10-05T13:57:55.140Z,23.39
2022-10-05T14:00:26.560Z,23.40
2022-10-05T14:02:56.649Z,23.07
2022-10-05T14:05:28.528Z,23.19
2022-10-05T14:08:10.202Z,23.01
2022-10-05T14:10:37.531Z,23.45
2022-10-05T14:13:22.624Z,23.62
2022-10-05T14:16:21.714Z,23.42
2022-10-05T14:19:14.361Z,23.43
2022-10-05T14:21:52.449Z,23.36
2022-10-05T14:24:43.705Z,23.07
2022-10-05T14:27:22.957Z,22.75
2022-10-05T14:29:57.809Z,22.72
2022-10-05T14:32:25.672Z,23.32
2022-10-05T14:35:10.474Z,22.85
2022-10-05T14:37:56.175Z,23.16
2022-10-05T14:40:34.986Z,23.77
2022-10-05T14:43:13.842Z,23.53
2022-10-05T14:45:54.795Z,23.81
2022-10-05T14:48:22.190Z,23.36
2022-10-05T14:50:54.988Z,23.26
2022-10-05T14:53:25.014Z,23.46
2022-10-05T14:59:29.286Z,22.90
2022-10-05T15:02:03.543Z,23.35
2022-10-05T15:04:47.315Z,23.23
2022-10-05T15:10:26.432Z,23.28
2022-10-05T15:12:55.426Z,23.16
2022-10-05T15:15:25.474Z,23.22
2022-10-05T15:17:59.448Z,23.28
2022-10-05T15:20:45.814Z,22.85
2022-10-05T15:23:12.245Z,23.36
2022-10-05T15:25:58.493Z,23.11
2022-10-05T15:28:54.552Z,22.87
2022-10-05T15:31:59.611Z,23.05
2022-10-05T15:34:49.067Z,22.90
2022-10-05T15:37:18.464Z,23.42
2022-10-05T15:39:50.203Z,23.21
2022-10-05T15:42:22.546Z,23.12
2022-10-05T15:45:05.444Z,22.95
2022-10-05T15:47:46.520Z,22.95
2022-10-05T15:50:26.293Z,22.39
2022-10-05T15:53:02.934Z,22.26
2022-10-05T15:55:56.956Z,22.09
2022-10-05T15:58:46.636Z,21.38
2022-10-05T16:01:20.559Z,21.28
2022-10-05T16:04:07.886Z,21.21
2022-10-05T16:09:56.540Z,20.98
2022-10-05T16:12:35.166Z,20.90
2022-10-05T16:15:29.837Z,20.83
2022-10-05T16:18:45.722Z,20.66
2022-10-05T16:21:25.519Z,20.65
2022-10-05T16:23:58.045Z,20.63
2022-10-05T16:26:24.480Z,20.63
2022-10-05T16:29:07.862Z,20.65
2022-10-05T16:31:58.003Z,20.60
2022-10-05T16:34:56.281Z,20.57
2022-10-05T16:37:25.685Z,20.67
2022-10-05T16:40:14.472Z,20.66
2022-10-05T16:43:09.528Z,20.66
2022-10-05T16:45:45.017Z,20.59
2022-10-05T16:48:28.866Z,20.76
2022-10-05T16:51:32.584Z,20.80
2022-10-05T16:54:28.027Z,20.90
2022-10-05T16:57:06.817Z,21.08
2022-10-05T17:00:08.854Z,21.17
2022-10-05T17:03:11.786Z,21.30
2022-10-05T17:05:41.409Z,21.23
2022-10-05T17:08:36.772Z,21.17
2022-10-05T17:11:21.917Z,21.04
2022-10-05T17:14:22.653Z,20.98
2022-10-05T17:17:03.324Z,20.96
2022-10-05T17:20:08.474Z,20.93
2022-10-05T17:22:46.553Z,20.86
2022-10-05T17:25:27.718Z,20.84
2022-10-05T17:28:20.101Z,20.60
2022-10-05T17:30:56.219Z,20.17
2022-10-05T17:33:31.294Z,19.88
2022-10-05T17:36:08.593Z,19.73
2022-10-05T17:38:35.072Z,19.51
2022-10-05T17:41:18.683Z,19.45
2022-10-05T17:44:06.995Z,19.33
2022-10-05T17:46:39.193Z,19.28
2022-10-05T17:49:38.796Z,19.22
2022-10-05T17:52:40.210Z,19.20
2022-10-05T17:58:54.637Z,19.08
2022-10-05T18:01:38.649Z,19.01
2022-10-05T18:04:14.161Z,18.96
2022-10-05T18:06:51.985Z,18.96
2022-10-05T18:09:28.391Z,19.01
2022-10-05T18:12:16.631Z,19.08
2022-10-05T18:15:12.924Z,19.09
2022-10-05T18:17:56.191Z,19.12
2022-10-05T18:20:31.748Z,19.19
2022-10-05T18:23:07.454Z,19.19
2022-10-05T18:25:43.143Z,19.22
2022-10-05T18:28:12.770Z,19.22
2022-10-05T18:30:59.155Z,19.20
2022-10-05T18:33:37.305Z,19.30
2022-10-05T18:36:37.847Z,19.30
2022-10-05T18:39:23.209Z,19.40
2022-10-05T18:42:27.234Z,19.42
2022-10-05T18:45:01.356Z,19.49
2022-10-05T18:47:43.454Z,19.47
2022-10-05T18:50:21.820Z,19.50
2022-10-05T18:53:12.690Z,19.56
2022-10-05T18:55:54.944Z,19.63
2022-10-05T18:58:32.553Z,19.57
2022-10-05T19:01:47.565Z,19.66
2022-10-05T19:04:25.722Z,19.63
2022-10-05T19:07:12.933Z,19.59
2022-10-05T19:10:11.903Z,19.64
2022-10-05T19:13:02.334Z,19.67
2022-10-05T19:15:35.760Z,19.59
2022-10-05T19:18:11.482Z,19.49
2022-10-05T19:21:04.152Z,19.24
2022-10-05T19:23:49.302Z,19.20
2022-10-05T19:26:21.506Z,19.28
2022-10-05T19:29:00.060Z,19.30
2022-10-05T19:31:41.051Z,19.35
2022-10-05T19:34:54.310Z,19.29
2022-10-05T19:37:53.103Z,19.32
2022-10-05T19:40:26.550Z,19.24
2022-10-05T19:43:19.081Z,19.18
2022-10-05T19:46:16.246Z,19.16
2022-10-05T19:48:50.103Z,19.13
2022-10-05T19:51:32.614Z,19.15
2022-10-05T19:54:02.710Z,19.06
2022-10-05T19:56:33.961Z,19.08
2022-10-05T19:59:18.796Z,19.01
2022-10-05T20:01:51.722Z,19.02
2022-10-05T20:04:31.791Z,19.06
2022-10-05T20:06:59.386Z,19.05
2022-10-05T20:09:26.263Z,19.01
2022-10-05T20:11:53.607Z,18.95
2022-10-05T20:14:32.274Z,18.95
2022-10-05T20:17:44.139Z,18.89
2022-10-05T20:20:36.137Z,18.89
2022-10-05T20:23:18.710Z,18.88
2022-10-05T20:26:05.327Z,18.89
2022-10-05T20:28:33.609Z,18.85
2022-10-05T20:31:00.391Z,18.88
2022-10-05T20:33:27.906Z,18.85
2022-10-05T20:35:55.899Z,18.85
2022-10-05T20:38:24.087Z,18.87
2022-10-05T20:40:50.830Z,18.80
2022-10-05T20:43:17.637Z,18.82
2022-10-05T20:45:44.615Z,18.84
2022-10-05T20:48:12.014Z,18.89
2022-10-05T20:50:39.585Z,18.88
2022-10-05T20:53:11.741Z,18.94
2022-10-05T20:55:38.549Z,19.13
2022-10-05T20:58:08.977Z,19.20
2022-10-05T21:00:54.352Z,19.20
2022-10-05T21:03:21.067Z,19.26
2022-10-05T21:05:48.196Z,19.22
2022-10-05T21:08:15.299Z,19.23
2022-10-05T21:10:41.800Z,19.28
2022-10-05T21:13:09.383Z,19.38
2022-10-05T21:15:35.994Z,19.29
2022-10-05T21:18:02.728Z,19.33
2022-10-05T21:20:29.303Z,19.40
2022-10-05T21:22:55.963Z,19.36
2022-10-05T21:25:22.616Z,19.39
2022-10-05T21:27:50.343Z,19.45
2022-10-05T21:30:17.027Z,19.42
2022-10-05T21:32:44.844Z,19.42
2022-10-05T21:35:13.077Z,19.38
2022-10-05T21:37:39.913Z,19.39
2022-10-05T21:40:06.809Z,19.39
2022-10-05T21:42:33.611Z,19.39
2022-10-05T21:45:00.346Z,19.33
2022-10-05T21:47:27.012Z,19.36
2022-10-05T21:49:54.273Z,19.38
2022-10-05T21:52:21.429Z,19.35
2022-10-05T21:54:48.302Z,19.40
2022-10-05T21:57:15.654Z,19.35
2022-10-05T21:59:43.014Z,19.36
2022-10-05T22:02:09.584Z,19.36
2022-10-05T22:04:36.210Z,19.42
2022-10-05T22:07:10.624Z,19.38
2022-10-05T22:09:37.170Z,19.35
2022-10-05T22:12:03.835Z,19.29
2022-10-05T22:14:30.561Z,19.26
2022-10-05T22:16:57.142Z,19.08
2022-10-05T22:19:23.819Z,19.02
2022-10-05T22:21:50.616Z,18.61
2022-10-05T22:24:17.303Z,17.68
2022-10-05T22:26:46.738Z,17.15
2022-10-05T22:29:15.846Z,16.83
2022-10-05T22:31:42.598Z,16.52
2022-10-05T22:34:09.208Z,16.35
2022-10-05T22:36:36.282Z,16.20
2022-10-05T22:39:03.801Z,15.96
2022-10-05T22:41:30.395Z,15.87
2022-10-05T22:43:56.961Z,15.86
2022-10-05T22:46:23.619Z,15.81
2022-10-05T22:48:50.214Z,15.67
2022-10-05T22:51:16.980Z,15.56
2022-10-05T22:53:43.578Z,15.63
2022-10-05T22:56:12.635Z,15.67
2022-10-05T22:58:40.598Z,15.74
2022-10-05T23:01:09.752Z,15.78
2022-10-05T23:03:36.566Z,15.80
2022-10-05T23:06:06.945Z,15.91
2022-10-05T23:08:35.217Z,16.00
2022-10-05T23:11:03.985Z,16.01
2022-10-05T23:13:31.371Z,16.10
2022-10-05T23:15:58.357Z,16.07
2022-10-05T23:18:25.995Z,16.15
2022-10-05T23:20:55.912Z,16.26
2022-10-05T23:23:23.476Z,16.31
2022-10-05T23:25:50.190Z,16.32
2022-10-05T23:28:17.087Z,16.36
2022-10-05T23:30:43.960Z,16.45
2022-10-05T23:33:10.952Z,16.41
2022-10-05T23:35:37.800Z,16.39
2022-10-05T23:38:04.898Z,16.31
2022-10-05T23:40:31.612Z,16.31
2022-10-05T23:42:58.526Z,16.31
2022-10-05T23:45:25.245Z,16.20
2022-10-05T23:47:51.910Z,16.08
2022-10-05T23:50:20.570Z,15.91
2022-10-05T23:52:47.227Z,15.70
2022-10-05T23:55:13.919Z,15.56
